sensor_id;sensor_type;location;lat;lon;timestamp;P1;durP1;ratioP1;P2;durP2;ratioP2
23358;SDS011;11851;50.796;4.372;2022-07-23T00:01:29;25.08;;;14.80;;
23358;SDS011;11851;50.796;4.372;2022-07-23T00:03:55;26.65;;;14.18;;
23358;SDS011;11851;50.796;4.372;2022-07-23T00:06:21;22.23;;;13.75;;
23358;SDS011;11851;50.796;4.372;2022-07-23T00:08:47;26.52;;;14.68;;
23358;SDS011;11851;50.796;4.372;2022-07-23T00:11:13;27.15;;;14.60;;
23358;SDS011;11851;50.796;4.372;2022-07-23T00:13:39;23.08;;;14.32;;
23358;SDS011;11851;50.796;4.372;2022-07-23T00:16:05;24.30;;;14.93;;
23358;SDS011;11851;50.796;4.372;2022-07-23T00:18:31;27.60;;;14.88;;
23358;SDS011;11851;50.796;4.372;2022-07-23T00:20:56;21.05;;;13.88;;
23358;SDS011;11851;50.796;4.372;2022-07-23T00:23:22;24.30;;;15.50;;
23358;SDS011;11851;50.796;4.372;2022-07-23T00:25:49;23.48;;;14.10;;
23358;SDS011;11851;50.796;4.372;2022-07-23T00:28:16;24.50;;;15.05;;
23358;SDS011;11851;50.796;4.372;2022-07-23T00:30:43;25.42;;;15.10;;
23358;SDS011;11851;50.796;4.372;2022-07-23T00:33:09;23.15;;;14.13;;
23358;SDS011;11851;50.796;4.372;2022-07-23T00:35:35;23.85;;;14.45;;
23358;SDS011;11851;50.796;4.372;2022-07-23T00:38:06;25.67;;;15.02;;
23358;SDS011;11851;50.796;4.372;2022-07-23T00:40:34;23.67;;;15.15;;
23358;SDS011;11851;50.796;4.372;2022-07-23T00:43:00;24.05;;;14.95;;
23358;SDS011;11851;50.796;4.372;2022-07-23T00:45:26;23.67;;;15.25;;
23358;SDS011;11851;50.796;4.372;2022-07-23T00:47:52;20.65;;;15.35;;
23358;SDS011;11851;50.796;4.372;2022-07-23T00:50:18;26.17;;;15.98;;
23358;SDS011;11851;50.796;4.372;2022-07-23T00:52:44;23.00;;;16.15;;
23358;SDS011;11851;50.796;4.372;2022-07-23T00:55:10;28.05;;;16.27;;
23358;SDS011;11851;50.796;4.372;2022-07-23T00:57:37;27.58;;;16.25;;
23358;SDS011;11851;50.796;4.372;2022-07-23T01:00:08;23.70;;;16.42;;
23358;SDS011;11851;50.796;4.372;2022-07-23T01:02:36;26.23;;;16.52;;
23358;SDS011;11851;50.796;4.372;2022-07-23T01:05:02;26.40;;;15.88;;
23358;SDS011;11851;50.796;4.372;2022-07-23T01:07:28;24.55;;;15.43;;
23358;SDS011;11851;50.796;4.372;2022-07-23T01:09:54;25.85;;;16.27;;
23358;SDS011;11851;50.796;4.372;2022-07-23T01:12:20;24.95;;;16.80;;
23358;SDS011;11851;50.796;4.372;2022-07-23T01:14:53;31.48;;;17.00;;
23358;SDS011;11851;50.796;4.372;2022-07-23T01:17:20;27.65;;;17.08;;
23358;SDS011;11851;50.796;4.372;2022-07-23T01:19:46;28.90;;;17.60;;
23358;SDS011;11851;50.796;4.372;2022-07-23T01:22:12;29.10;;;17.58;;
23358;SDS011;11851;50.796;4.372;2022-07-23T01:24:39;30.08;;;17.38;;
23358;SDS011;11851;50.796;4.372;2022-07-23T01:27:05;28.10;;;17.52;;
23358;SDS011;11851;50.796;4.372;2022-07-23T01:29:31;27.08;;;17.20;;
23358;SDS011;11851;50.796;4.372;2022-07-23T01:31:56;30.45;;;17.33;;
23358;SDS011;11851;50.796;4.372;2022-07-23T01:34:22;29.38;;;17.35;;
23358;SDS011;11851;50.796;4.372;2022-07-23T01:36:47;27.00;;;17.73;;
23358;SDS011;11851;50.796;4.372;2022-07-23T01:39:13;29.65;;;17.45;;
23358;SDS011;11851;50.796;4.372;2022-07-23T01:41:39;27.27;;;17.77;;
23358;SDS011;11851;50.796;4.372;2022-07-23T01:44:05;28.45;;;17.38;;
23358;SDS011;11851;50.796;4.372;2022-07-23T01:46:31;25.98;;;17.33;;
23358;SDS011;11851;50.796;4.372;2022-07-23T01:48:56;30.92;;;18.50;;
23358;SDS011;11851;50.796;4.372;2022-07-23T01:51:22;30.92;;;18.13;;
23358;SDS011;11851;50.796;4.372;2022-07-23T01:53:48;27.00;;;16.65;;
23358;SDS011;11851;50.796;4.372;2022-07-23T01:56:13;25.73;;;17.17;;
23358;SDS011;11851;50.796;4.372;2022-07-23T01:58:40;33.15;;;18.63;;
23358;SDS011;11851;50.796;4.372;2022-07-23T02:01:06;29.52;;;18.85;;
23358;SDS011;11851;50.796;4.372;2022-07-23T02:03:31;28.00;;;18.52;;
23358;SDS011;11851;50.796;4.372;2022-07-23T02:05:57;26.65;;;17.77;;
23358;SDS011;11851;50.796;4.372;2022-07-23T02:08:23;29.50;;;17.73;;
23358;SDS011;11851;50.796;4.372;2022-07-23T02:10:48;31.33;;;18.67;;
23358;SDS011;11851;50.796;4.372;2022-07-23T02:13:16;29.77;;;18.85;;
23358;SDS011;11851;50.796;4.372;2022-07-23T02:15:42;32.53;;;18.85;;
23358;SDS011;11851;50.796;4.372;2022-07-23T02:18:08;30.13;;;18.70;;
23358;SDS011;11851;50.796;4.372;2022-07-23T02:20:34;32.80;;;19.77;;
23358;SDS011;11851;50.796;4.372;2022-07-23T02:22:59;32.95;;;19.42;;
23358;SDS011;11851;50.796;4.372;2022-07-23T02:25:25;32.10;;;19.05;;
23358;SDS011;11851;50.796;4.372;2022-07-23T02:27:51;29.38;;;17.92;;
23358;SDS011;11851;50.796;4.372;2022-07-23T02:30:16;29.05;;;18.83;;
23358;SDS011;11851;50.796;4.372;2022-07-23T02:32:42;31.45;;;19.33;;
23358;SDS011;11851;50.796;4.372;2022-07-23T02:35:07;29.77;;;20.35;;
23358;SDS011;11851;50.796;4.372;2022-07-23T02:37:34;30.33;;;18.55;;
23358;SDS011;11851;50.796;4.372;2022-07-23T02:40:00;30.40;;;20.08;;
23358;SDS011;11851;50.796;4.372;2022-07-23T02:42:26;30.95;;;19.48;;
23358;SDS011;11851;50.796;4.372;2022-07-23T02:44:51;35.40;;;19.85;;
23358;SDS011;11851;50.796;4.372;2022-07-23T02:47:17;30.17;;;19.52;;
23358;SDS011;11851;50.796;4.372;2022-07-23T02:49:43;28.25;;;18.95;;
23358;SDS011;11851;50.796;4.372;2022-07-23T02:52:08;32.47;;;19.52;;
23358;SDS011;11851;50.796;4.372;2022-07-23T02:54:35;34.53;;;19.98;;
23358;SDS011;11851;50.796;4.372;2022-07-23T02:57:02;31.33;;;18.77;;
23358;SDS011;11851;50.796;4.372;2022-07-23T02:59:28;32.50;;;19.90;;
23358;SDS011;11851;50.796;4.372;2022-07-23T03:01:53;33.90;;;19.55;;
23358;SDS011;11851;50.796;4.372;2022-07-23T03:04:19;35.33;;;19.00;;
23358;SDS011;11851;50.796;4.372;2022-07-23T03:06:44;31.58;;;19.08;;
23358;SDS011;11851;50.796;4.372;2022-07-23T03:09:10;29.80;;;19.30;;
23358;SDS011;11851;50.796;4.372;2022-07-23T03:11:36;29.60;;;19.45;;
23358;SDS011;11851;50.796;4.372;2022-07-23T03:14:01;28.98;;;19.88;;
23358;SDS011;11851;50.796;4.372;2022-07-23T03:16:27;30.25;;;18.67;;
23358;SDS011;11851;50.796;4.372;2022-07-23T03:18:52;29.35;;;19.50;;
23358;SDS011;11851;50.796;4.372;2022-07-23T03:21:18;29.60;;;20.27;;
23358;SDS011;11851;50.796;4.372;2022-07-23T03:23:44;29.02;;;19.08;;
23358;SDS011;11851;50.796;4.372;2022-07-23T03:26:09;30.40;;;19.60;;
23358;SDS011;11851;50.796;4.372;2022-07-23T03:28:35;33.22;;;18.98;;
23358;SDS011;11851;50.796;4.372;2022-07-23T03:31:01;31.77;;;19.17;;
23358;SDS011;11851;50.796;4.372;2022-07-23T03:33:26;28.83;;;18.58;;
23358;SDS011;11851;50.796;4.372;2022-07-23T03:35:52;30.15;;;19.48;;
23358;SDS011;11851;50.796;4.372;2022-07-23T03:38:17;30.00;;;18.45;;
23358;SDS011;11851;50.796;4.372;2022-07-23T03:40:43;30.45;;;19.40;;
23358;SDS011;11851;50.796;4.372;2022-07-23T03:43:09;33.38;;;18.50;;
23358;SDS011;11851;50.796;4.372;2022-07-23T03:45:34;29.08;;;18.63;;
23358;SDS011;11851;50.796;4.372;2022-07-23T03:48:00;30.15;;;19.33;;
23358;SDS011;11851;50.796;4.372;2022-07-23T03:50:26;30.58;;;19.08;;
23358;SDS011;11851;50.796;4.372;2022-07-23T03:52:51;29.45;;;18.88;;
23358;SDS011;11851;50.796;4.372;2022-07-23T03:55:17;34.45;;;18.95;;
23358;SDS011;11851;50.796;4.372;2022-07-23T03:57:43;30.38;;;18.52;;
23358;SDS011;11851;50.796;4.372;2022-07-23T04:00:09;27.92;;;18.13;;
23358;SDS011;11851;50.796;4.372;2022-07-23T04:02:36;29.55;;;18.65;;
23358;SDS011;11851;50.796;4.372;2022-07-23T04:05:03;30.42;;;18.48;;
23358;SDS011;11851;50.796;4.372;2022-07-23T04:07:29;29.40;;;18.83;;
23358;SDS011;11851;50.796;4.372;2022-07-23T04:09:55;28.80;;;18.25;;
23358;SDS011;11851;50.796;4.372;2022-07-23T04:12:21;27.80;;;17.80;;
23358;SDS011;11851;50.796;4.372;2022-07-23T04:14:47;28.88;;;18.23;;
23358;SDS011;11851;50.796;4.372;2022-07-23T04:17:13;27.17;;;18.17;;
23358;SDS011;11851;50.796;4.372;2022-07-23T04:19:38;25.42;;;17.92;;
23358;SDS011;11851;50.796;4.372;2022-07-23T04:22:06;26.15;;;18.10;;
23358;SDS011;11851;50.796;4.372;2022-07-23T04:24:32;28.52;;;17.90;;
23358;SDS011;11851;50.796;4.372;2022-07-23T04:26:58;27.65;;;18.33;;
23358;SDS011;11851;50.796;4.372;2022-07-23T04:29:24;29.27;;;19.17;;
23358;SDS011;11851;50.796;4.372;2022-07-23T04:31:49;26.20;;;17.83;;
23358;SDS011;11851;50.796;4.372;2022-07-23T04:34:15;28.58;;;18.58;;
23358;SDS011;11851;50.796;4.372;2022-07-23T04:36:41;29.58;;;19.05;;
23358;SDS011;11851;50.796;4.372;2022-07-23T04:39:06;25.40;;;18.67;;
23358;SDS011;11851;50.796;4.372;2022-07-23T04:41:32;29.85;;;18.45;;
23358;SDS011;11851;50.796;4.372;2022-07-23T04:43:59;30.42;;;19.65;;
23358;SDS011;11851;50.796;4.372;2022-07-23T04:46:25;25.48;;;18.15;;
23358;SDS011;11851;50.796;4.372;2022-07-23T04:48:50;30.90;;;18.42;;
23358;SDS011;11851;50.796;4.372;2022-07-23T04:51:16;25.98;;;18.75;;
23358;SDS011;11851;50.796;4.372;2022-07-23T04:53:42;26.42;;;18.65;;
23358;SDS011;11851;50.796;4.372;2022-07-23T04:56:07;29.10;;;18.23;;
23358;SDS011;11851;50.796;4.372;2022-07-23T04:58:33;26.23;;;17.50;;
23358;SDS011;11851;50.796;4.372;2022-07-23T05:00:59;26.27;;;17.65;;
23358;SDS011;11851;50.796;4.372;2022-07-23T05:03:24;28.23;;;17.40;;
23358;SDS011;11851;50.796;4.372;2022-07-23T05:05:50;23.25;;;16.92;;
23358;SDS011;11851;50.796;4.372;2022-07-23T05:08:16;31.90;;;17.60;;
23358;SDS011;11851;50.796;4.372;2022-07-23T05:10:42;30.65;;;18.25;;
23358;SDS011;11851;50.796;4.372;2022-07-23T05:13:08;27.58;;;18.05;;
23358;SDS011;11851;50.796;4.372;2022-07-23T05:15:33;28.02;;;17.20;;
23358;SDS011;11851;50.796;4.372;2022-07-23T05:17:59;28.67;;;16.63;;
23358;SDS011;11851;50.796;4.372;2022-07-23T05:20:25;25.80;;;16.20;;
23358;SDS011;11851;50.796;4.372;2022-07-23T05:22:51;28.67;;;16.58;;
23358;SDS011;11851;50.796;4.372;2022-07-23T05:25:16;23.05;;;16.00;;
23358;SDS011;11851;50.796;4.372;2022-07-23T05:27:43;24.95;;;15.95;;
23358;SDS011;11851;50.796;4.372;2022-07-23T05:30:08;24.75;;;15.82;;
23358;SDS011;11851;50.796;4.372;2022-07-23T05:32:34;31.02;;;16.02;;
23358;SDS011;11851;50.796;4.372;2022-07-23T05:35:01;26.65;;;16.05;;
23358;SDS011;11851;50.796;4.372;2022-07-23T05:37:28;24.45;;;15.07;;
23358;SDS011;11851;50.796;4.372;2022-07-23T05:39:54;23.05;;;14.80;;
23358;SDS011;11851;50.796;4.372;2022-07-23T05:42:19;25.40;;;15.27;;
23358;SDS011;11851;50.796;4.372;2022-07-23T05:44:45;26.65;;;16.33;;
23358;SDS011;11851;50.796;4.372;2022-07-23T05:47:11;24.52;;;16.33;;
23358;SDS011;11851;50.796;4.372;2022-07-23T05:49:37;27.70;;;16.40;;
23358;SDS011;11851;50.796;4.372;2022-07-23T05:52:07;29.00;;;15.77;;
23358;SDS011;11851;50.796;4.372;2022-07-23T05:54:35;25.92;;;16.13;;
23358;SDS011;11851;50.796;4.372;2022-07-23T05:57:01;26.50;;;15.55;;
23358;SDS011;11851;50.796;4.372;2022-07-23T05:59:27;24.27;;;16.13;;
23358;SDS011;11851;50.796;4.372;2022-07-23T06:01:53;26.85;;;15.23;;
23358;SDS011;11851;50.796;4.372;2022-07-23T06:04:18;24.20;;;16.05;;
23358;SDS011;11851;50.796;4.372;2022-07-23T06:06:44;28.42;;;16.55;;
23358;SDS011;11851;50.796;4.372;2022-07-23T06:09:10;22.40;;;15.20;;
23358;SDS011;11851;50.796;4.372;2022-07-23T06:11:38;25.02;;;15.88;;
23358;SDS011;11851;50.796;4.372;2022-07-23T06:14:04;27.58;;;16.83;;
23358;SDS011;11851;50.796;4.372;2022-07-23T06:16:31;24.45;;;16.08;;
23358;SDS011;11851;50.796;4.372;2022-07-23T06:18:56;30.48;;;16.40;;
23358;SDS011;11851;50.796;4.372;2022-07-23T06:21:22;24.55;;;15.43;;
23358;SDS011;11851;50.796;4.372;2022-07-23T06:23:47;25.33;;;15.98;;
23358;SDS011;11851;50.796;4.372;2022-07-23T06:26:13;23.10;;;14.75;;
23358;SDS011;11851;50.796;4.372;2022-07-23T06:28:39;24.77;;;15.07;;
23358;SDS011;11851;50.796;4.372;2022-07-23T06:31:04;26.25;;;14.38;;
23358;SDS011;11851;50.796;4.372;2022-07-23T06:33:30;22.02;;;15.00;;
23358;SDS011;11851;50.796;4.372;2022-07-23T06:35:56;24.58;;;14.73;;
23358;SDS011;11851;50.796;4.372;2022-07-23T06:38:21;20.08;;;13.35;;
23358;SDS011;11851;50.796;4.372;2022-07-23T06:40:47;30.80;;;13.98;;
23358;SDS011;11851;50.796;4.372;2022-07-23T06:43:13;22.17;;;13.35;;
23358;SDS011;11851;50.796;4.372;2022-07-23T06:45:38;21.73;;;13.88;;
23358;SDS011;11851;50.796;4.372;2022-07-23T06:48:04;22.60;;;13.75;;
23358;SDS011;11851;50.796;4.372;2022-07-23T06:50:30;19.77;;;12.80;;
23358;SDS011;11851;50.796;4.372;2022-07-23T06:52:55;21.83;;;13.43;;
23358;SDS011;11851;50.796;4.372;2022-07-23T06:55:21;25.33;;;13.50;;
23358;SDS011;11851;50.796;4.372;2022-07-23T06:57:47;20.13;;;13.18;;
23358;SDS011;11851;50.796;4.372;2022-07-23T07:00:12;20.40;;;13.60;;
23358;SDS011;11851;50.796;4.372;2022-07-23T07:02:38;20.77;;;13.55;;
23358;SDS011;11851;50.796;4.372;2022-07-23T07:05:04;24.33;;;12.85;;
23358;SDS011;11851;50.796;4.372;2022-07-23T07:07:30;22.60;;;12.77;;
23358;SDS011;11851;50.796;4.372;2022-07-23T07:09:56;21.13;;;12.90;;
23358;SDS011;11851;50.796;4.372;2022-07-23T07:12:21;25.98;;;13.35;;
23358;SDS011;11851;50.796;4.372;2022-07-23T07:14:47;20.10;;;14.05;;
23358;SDS011;11851;50.796;4.372;2022-07-23T07:17:13;19.83;;;14.02;;
23358;SDS011;11851;50.796;4.372;2022-07-23T07:19:38;26.05;;;14.23;;
23358;SDS011;11851;50.796;4.372;2022-07-23T07:22:04;23.65;;;14.48;;
23358;SDS011;11851;50.796;4.372;2022-07-23T07:24:29;26.40;;;14.18;;
23358;SDS011;11851;50.796;4.372;2022-07-23T07:26:55;21.55;;;14.25;;
23358;SDS011;11851;50.796;4.372;2022-07-23T07:29:21;20.60;;;13.27;;
23358;SDS011;11851;50.796;4.372;2022-07-23T07:31:46;27.33;;;13.60;;
23358;SDS011;11851;50.796;4.372;2022-07-23T07:34:12;19.70;;;13.10;;
23358;SDS011;11851;50.796;4.372;2022-07-23T07:36:37;20.58;;;12.60;;
23358;SDS011;11851;50.796;4.372;2022-07-23T07:39:03;26.88;;;13.88;;
23358;SDS011;11851;50.796;4.372;2022-07-23T07:41:30;19.65;;;12.00;;
23358;SDS011;11851;50.796;4.372;2022-07-23T07:43:56;22.50;;;11.77;;
23358;SDS011;11851;50.796;4.372;2022-07-23T07:46:21;19.67;;;11.60;;
23358;SDS011;11851;50.796;4.372;2022-07-23T07:48:49;21.67;;;11.80;;
23358;SDS011;11851;50.796;4.372;2022-07-23T07:51:15;23.50;;;11.93;;
23358;SDS011;11851;50.796;4.372;2022-07-23T07:53:41;18.17;;;11.10;;
23358;SDS011;11851;50.796;4.372;2022-07-23T07:56:06;19.52;;;10.00;;
23358;SDS011;11851;50.796;4.372;2022-07-23T07:58:32;17.17;;;11.40;;
23358;SDS011;11851;50.796;4.372;2022-07-23T08:00:58;19.73;;;11.43;;
23358;SDS011;11851;50.796;4.372;2022-07-23T08:03:24;16.80;;;10.98;;
23358;SDS011;11851;50.796;4.372;2022-07-23T08:05:49;19.63;;;10.10;;
23358;SDS011;11851;50.796;4.372;2022-07-23T08:08:15;17.77;;;10.00;;
23358;SDS011;11851;50.796;4.372;2022-07-23T08:10:41;16.40;;;10.05;;
23358;SDS011;11851;50.796;4.372;2022-07-23T08:13:07;20.02;;;10.50;;
23358;SDS011;11851;50.796;4.372;2022-07-23T08:15:32;16.65;;;10.07;;
23358;SDS011;11851;50.796;4.372;2022-07-23T08:17:58;15.80;;;9.38;;
23358;SDS011;11851;50.796;4.372;2022-07-23T08:20:25;18.02;;;10.77;;
23358;SDS011;11851;50.796;4.372;2022-07-23T08:22:52;17.27;;;9.35;;
23358;SDS011;11851;50.796;4.372;2022-07-23T08:25:28;15.32;;;8.98;;
23358;SDS011;11851;50.796;4.372;2022-07-23T08:27:56;20.02;;;9.85;;
23358;SDS011;11851;50.796;4.372;2022-07-23T08:30:23;16.10;;;10.57;;
23358;SDS011;11851;50.796;4.372;2022-07-23T08:32:59;16.75;;;8.73;;
23358;SDS011;11851;50.796;4.372;2022-07-23T08:35:36;19.60;;;8.45;;
23358;SDS011;11851;50.796;4.372;2022-07-23T08:38:04;17.58;;;10.32;;
23358;SDS011;11851;50.796;4.372;2022-07-23T08:40:32;14.93;;;9.07;;
23358;SDS011;11851;50.796;4.372;2022-07-23T08:42:59;16.67;;;8.65;;
23358;SDS011;11851;50.796;4.372;2022-07-23T08:45:28;15.55;;;9.02;;
23358;SDS011;11851;50.796;4.372;2022-07-23T08:47:55;16.58;;;9.60;;
23358;SDS011;11851;50.796;4.372;2022-07-23T08:50:24;16.17;;;9.05;;
23358;SDS011;11851;50.796;4.372;2022-07-23T08:52:50;12.57;;;8.48;;
23358;SDS011;11851;50.796;4.372;2022-07-23T08:55:18;14.05;;;8.23;;
23358;SDS011;11851;50.796;4.372;2022-07-23T08:57:45;16.35;;;9.35;;
23358;SDS011;11851;50.796;4.372;2022-07-23T09:00:13;17.88;;;9.20;;
23358;SDS011;11851;50.796;4.372;2022-07-23T09:02:41;18.40;;;8.75;;
23358;SDS011;11851;50.796;4.372;2022-07-23T09:05:08;18.08;;;8.52;;
23358;SDS011;11851;50.796;4.372;2022-07-23T09:07:36;14.15;;;8.32;;
23358;SDS011;11851;50.796;4.372;2022-07-23T09:10:09;16.13;;;8.63;;
23358;SDS011;11851;50.796;4.372;2022-07-23T09:12:35;13.95;;;8.75;;
23358;SDS011;11851;50.796;4.372;2022-07-23T09:15:03;13.73;;;8.68;;
23358;SDS011;11851;50.796;4.372;2022-07-23T09:17:36;17.92;;;8.18;;
23358;SDS011;11851;50.796;4.372;2022-07-23T09:20:07;13.82;;;7.97;;
23358;SDS011;11851;50.796;4.372;2022-07-23T09:22:38;15.02;;;7.85;;
23358;SDS011;11851;50.796;4.372;2022-07-23T09:27:55;10.70;;;7.05;;
23358;SDS011;11851;50.796;4.372;2022-07-23T09:30:23;11.60;;;7.07;;
23358;SDS011;11851;50.796;4.372;2022-07-23T09:33:03;16.67;;;6.95;;
23358;SDS011;11851;50.796;4.372;2022-07-23T09:38:19;10.90;;;7.15;;
23358;SDS011;11851;50.796;4.372;2022-07-23T09:41:05;13.43;;;8.57;;
23358;SDS011;11851;50.796;4.372;2022-07-23T09:43:34;19.63;;;7.32;;
23358;SDS011;11851;50.796;4.372;2022-07-23T09:48:52;11.75;;;6.22;;
23358;SDS011;11851;50.796;4.372;2022-07-23T09:51:19;13.80;;;6.70;;
23358;SDS011;11851;50.796;4.372;2022-07-23T09:54:00;10.38;;;6.47;;
23358;SDS011;11851;50.796;4.372;2022-07-23T09:56:26;12.73;;;6.30;;
23358;SDS011;11851;50.796;4.372;2022-07-23T09:58:53;12.10;;;6.70;;
23358;SDS011;11851;50.796;4.372;2022-07-23T10:01:33;11.68;;;5.72;;
23358;SDS011;11851;50.796;4.372;2022-07-23T10:03:59;12.40;;;5.63;;
23358;SDS011;11851;50.796;4.372;2022-07-23T10:06:26;9.55;;;5.43;;
23358;SDS011;11851;50.796;4.372;2022-07-23T10:08:52;9.60;;;5.78;;
23358;SDS011;11851;50.796;4.372;2022-07-23T10:11:23;11.95;;;5.78;;
23358;SDS011;11851;50.796;4.372;2022-07-23T10:13:49;11.52;;;5.15;;
23358;SDS011;11851;50.796;4.372;2022-07-23T10:16:23;10.77;;;4.53;;
23358;SDS011;11851;50.796;4.372;2022-07-23T10:18:49;8.98;;;5.03;;
23358;SDS011;11851;50.796;4.372;2022-07-23T10:21:21;9.98;;;4.43;;
23358;SDS011;11851;50.796;4.372;2022-07-23T10:24:01;8.88;;;4.65;;
23358;SDS011;11851;50.796;4.372;2022-07-23T10:27:20;8.27;;;3.67;;
23358;SDS011;11851;50.796;4.372;2022-07-23T10:29:36;9.07;;;4.60;;
23358;SDS011;11851;50.796;4.372;2022-07-23T10:35:03;11.85;;;4.68;;
23358;SDS011;11851;50.796;4.372;2022-07-23T10:37:55;9.00;;;4.40;;
23358;SDS011;11851;50.796;4.372;2022-07-23T10:40:26;7.43;;;4.68;;
23358;SDS011;11851;50.796;4.372;2022-07-23T10:42:53;10.80;;;5.07;;
23358;SDS011;11851;50.796;4.372;2022-07-23T10:45:26;10.48;;;4.45;;
23358;SDS011;11851;50.796;4.372;2022-07-23T10:47:52;5.15;;;3.13;;
23358;SDS011;11851;50.796;4.372;2022-07-23T10:50:19;5.65;;;3.30;;
23358;SDS011;11851;50.796;4.372;2022-07-23T10:55:44;7.25;;;3.85;;
23358;SDS011;11851;50.796;4.372;2022-07-23T10:58:12;8.25;;;3.25;;
23358;SDS011;11851;50.796;4.372;2022-07-23T11:00:43;5.32;;;3.08;;
23358;SDS011;11851;50.796;4.372;2022-07-23T11:03:29;10.07;;;3.30;;
23358;SDS011;11851;50.796;4.372;2022-07-23T11:08:28;7.60;;;3.60;;
23358;SDS011;11851;50.796;4.372;2022-07-23T11:10:55;6.22;;;3.47;;
23358;SDS011;11851;50.796;4.372;2022-07-23T11:16:03;5.50;;;3.50;;
23358;SDS011;11851;50.796;4.372;2022-07-23T11:34:35;5.32;;;3.47;;
23358;SDS011;11851;50.796;4.372;2022-07-23T11:37:05;8.93;;;4.65;;
23358;SDS011;11851;50.796;4.372;2022-07-23T11:39:34;8.20;;;4.15;;
23358;SDS011;11851;50.796;4.372;2022-07-23T11:42:01;8.88;;;3.63;;
23358;SDS011;11851;50.796;4.372;2022-07-23T11:44:32;7.05;;;3.35;;
23358;SDS011;11851;50.796;4.372;2022-07-23T11:49:26;6.90;;;3.80;;
23358;SDS011;11851;50.796;4.372;2022-07-23T11:52:05;7.45;;;3.85;;
23358;SDS011;11851;50.796;4.372;2022-07-23T11:54:32;6.75;;;3.80;;
23358;SDS011;11851;50.796;4.372;2022-07-23T11:56:59;6.03;;;2.95;;
23358;SDS011;11851;50.796;4.372;2022-07-23T11:59:27;8.75;;;5.30;;
23358;SDS011;11851;50.796;4.372;2022-07-23T12:01:57;7.65;;;4.88;;
23358;SDS011;11851;50.796;4.372;2022-07-23T12:04:24;8.98;;;5.20;;
23358;SDS011;11851;50.796;4.372;2022-07-23T12:06:50;13.48;;;5.47;;
23358;SDS011;11851;50.796;4.372;2022-07-23T12:09:16;10.60;;;5.35;;
23358;SDS011;11851;50.796;4.372;2022-07-23T12:11:57;7.43;;;5.13;;
23358;SDS011;11851;50.796;4.372;2022-07-23T12:14:24;10.45;;;4.82;;
23358;SDS011;11851;50.796;4.372;2022-07-23T12:19:34;10.32;;;4.78;;
23358;SDS011;11851;50.796;4.372;2022-07-23T12:22:00;6.88;;;4.40;;
23358;SDS011;11851;50.796;4.372;2022-07-23T12:24:26;8.88;;;4.75;;
23358;SDS011;11851;50.796;4.372;2022-07-23T12:27:07;7.93;;;4.15;;
23358;SDS011;11851;50.796;4.372;2022-07-23T12:29:35;8.10;;;4.20;;
23358;SDS011;11851;50.796;4.372;2022-07-23T12:32:01;11.30;;;5.70;;
23358;SDS011;11851;50.796;4.372;2022-07-23T12:34:27;9.00;;;5.13;;
23358;SDS011;11851;50.796;4.372;2022-07-23T12:36:53;8.93;;;4.10;;
23358;SDS011;11851;50.796;4.372;2022-07-23T12:39:31;9.50;;;5.35;;
23358;SDS011;11851;50.796;4.372;2022-07-23T12:41:57;15.90;;;5.40;;
23358;SDS011;11851;50.796;4.372;2022-07-23T12:44:23;12.00;;;5.45;;
23358;SDS011;11851;50.796;4.372;2022-07-23T12:46:50;8.13;;;5.00;;
23358;SDS011;11851;50.796;4.372;2022-07-23T12:49:24;11.32;;;6.25;;
23358;SDS011;11851;50.796;4.372;2022-07-23T12:51:51;7.95;;;5.50;;
23358;SDS011;11851;50.796;4.372;2022-07-23T12:54:17;7.97;;;4.60;;
23358;SDS011;11851;50.796;4.372;2022-07-23T12:56:45;7.57;;;4.28;;
23358;SDS011;11851;50.796;4.372;2022-07-23T12:59:12;10.27;;;5.10;;
23358;SDS011;11851;50.796;4.372;2022-07-23T13:01:44;7.38;;;4.00;;
23358;SDS011;11851;50.796;4.372;2022-07-23T13:04:20;5.28;;;3.75;;
23358;SDS011;11851;50.796;4.372;2022-07-23T13:06:48;13.20;;;4.13;;
23358;SDS011;11851;50.796;4.372;2022-07-23T13:09:17;7.07;;;3.58;;
23358;SDS011;11851;50.796;4.372;2022-07-23T13:11:47;10.90;;;4.33;;
23358;SDS011;11851;50.796;4.372;2022-07-23T13:14:15;7.15;;;4.80;;
23358;SDS011;11851;50.796;4.372;2022-07-23T13:16:41;5.28;;;3.70;;
23358;SDS011;11851;50.796;4.372;2022-07-23T13:19:08;7.90;;;4.20;;
23358;SDS011;11851;50.796;4.372;2022-07-23T13:21:34;10.55;;;4.80;;
23358;SDS011;11851;50.796;4.372;2022-07-23T13:23:59;6.20;;;3.85;;
23358;SDS011;11851;50.796;4.372;2022-07-23T13:26:25;6.10;;;3.88;;
23358;SDS011;11851;50.796;4.372;2022-07-23T13:28:52;5.53;;;3.60;;
23358;SDS011;11851;50.796;4.372;2022-07-23T13:31:18;9.73;;;4.35;;
23358;SDS011;11851;50.796;4.372;2022-07-23T13:33:44;8.05;;;3.55;;
23358;SDS011;11851;50.796;4.372;2022-07-23T13:36:10;8.73;;;3.83;;
23358;SDS011;11851;50.796;4.372;2022-07-23T13:38:36;6.45;;;3.90;;
23358;SDS011;11851;50.796;4.372;2022-07-23T13:41:02;6.40;;;3.70;;
23358;SDS011;11851;50.796;4.372;2022-07-23T13:43:28;11.13;;;4.40;;
23358;SDS011;11851;50.796;4.372;2022-07-23T13:45:54;8.93;;;4.43;;
23358;SDS011;11851;50.796;4.372;2022-07-23T13:48:20;6.78;;;4.20;;
23358;SDS011;11851;50.796;4.372;2022-07-23T13:50:46;6.60;;;3.78;;
23358;SDS011;11851;50.796;4.372;2022-07-23T13:53:14;9.93;;;4.43;;
23358;SDS011;11851;50.796;4.372;2022-07-23T13:55:41;6.82;;;3.80;;
23358;SDS011;11851;50.796;4.372;2022-07-23T13:58:08;4.80;;;4.07;;
23358;SDS011;11851;50.796;4.372;2022-07-23T14:00:36;9.32;;;4.28;;
23358;SDS011;11851;50.796;4.372;2022-07-23T14:03:03;6.45;;;4.20;;
23358;SDS011;11851;50.796;4.372;2022-07-23T14:05:29;7.40;;;3.97;;
23358;SDS011;11851;50.796;4.372;2022-07-23T14:07:55;7.65;;;4.25;;
23358;SDS011;11851;50.796;4.372;2022-07-23T14:10:21;7.00;;;4.00;;
23358;SDS011;11851;50.796;4.372;2022-07-23T14:12:48;8.63;;;4.07;;
23358;SDS011;11851;50.796;4.372;2022-07-23T14:15:16;6.32;;;4.13;;
23358;SDS011;11851;50.796;4.372;2022-07-23T14:17:42;6.25;;;3.90;;
23358;SDS011;11851;50.796;4.372;2022-07-23T14:20:10;6.50;;;3.80;;
23358;SDS011;11851;50.796;4.372;2022-07-23T14:22:37;6.25;;;4.00;;
23358;SDS011;11851;50.796;4.372;2022-07-23T14:25:04;9.73;;;3.85;;
23358;SDS011;11851;50.796;4.372;2022-07-23T14:27:30;6.65;;;4.28;;
23358;SDS011;11851;50.796;4.372;2022-07-23T14:29:56;6.05;;;4.32;;
23358;SDS011;11851;50.796;4.372;2022-07-23T14:32:22;9.73;;;3.65;;
23358;SDS011;11851;50.796;4.372;2022-07-23T14:34:48;5.60;;;4.00;;
23358;SDS011;11851;50.796;4.372;2022-07-23T14:37:14;6.50;;;3.80;;
23358;SDS011;11851;50.796;4.372;2022-07-23T14:39:40;5.30;;;3.45;;
23358;SDS011;11851;50.796;4.372;2022-07-23T14:42:07;4.65;;;3.90;;
23358;SDS011;11851;50.796;4.372;2022-07-23T14:44:34;7.47;;;4.55;;
23358;SDS011;11851;50.796;4.372;2022-07-23T14:46:59;6.25;;;4.10;;
23358;SDS011;11851;50.796;4.372;2022-07-23T14:49:26;6.05;;;3.58;;
23358;SDS011;11851;50.796;4.372;2022-07-23T14:51:52;8.30;;;4.20;;
23358;SDS011;11851;50.796;4.372;2022-07-23T14:54:18;6.50;;;4.35;;
23358;SDS011;11851;50.796;4.372;2022-07-23T14:56:45;7.20;;;3.83;;
23358;SDS011;11851;50.796;4.372;2022-07-23T14:59:11;8.15;;;3.63;;
23358;SDS011;11851;50.796;4.372;2022-07-23T15:01:37;4.82;;;3.70;;
23358;SDS011;11851;50.796;4.372;2022-07-23T15:04:03;8.73;;;4.43;;
23358;SDS011;11851;50.796;4.372;2022-07-23T15:06:29;5.55;;;3.42;;
23358;SDS011;11851;50.796;4.372;2022-07-23T15:08:55;5.43;;;3.50;;
23358;SDS011;11851;50.796;4.372;2022-07-23T15:11:21;5.15;;;3.60;;